sensor_id;sensor_type;location;lat;lon;timestamp;P1;durP1;ratioP1;P2;durP2;ratioP2
50519;SDS011;36468;44.098;3.078;2022-10-31T00:01:12;23.90;;;5.20;;
50519;SDS011;36468;44.098;3.078;2022-10-31T00:03:39;28.75;;;5.55;;
50519;SDS011;36468;44.098;3.078;2022-10-31T00:06:05;26.50;;;4.63;;
50519;SDS011;36468;44.098;3.078;2022-10-31T00:08:31;32.72;;;5.55;;
50519;SDS011;36468;44.098;3.078;2022-10-31T00:10:57;28.08;;;6.50;;
50519;SDS011;36468;44.098;3.078;2022-10-31T00:13:23;31.10;;;5.38;;
50519;SDS011;36468;44.098;3.078;2022-10-31T00:15:49;22.35;;;4.97;;
50519;SDS011;36468;44.098;3.078;2022-10-31T00:18:15;37.17;;;5.38;;
50519;SDS011;36468;44.098;3.078;2022-10-31T00:20:41;25.30;;;4.70;;
50519;SDS011;36468;44.098;3.078;2022-10-31T00:23:08;28.05;;;5.50;;
50519;SDS011;36468;44.098;3.078;2022-10-31T00:25:36;24.63;;;5.30;;
50519;SDS011;36468;44.098;3.078;2022-10-31T00:28:02;31.02;;;5.57;;
50519;SDS011;36468;44.098;3.078;2022-10-31T00:30:28;24.58;;;4.95;;
50519;SDS011;36468;44.098;3.078;2022-10-31T00:32:54;27.40;;;5.30;;
50519;SDS011;36468;44.098;3.078;2022-10-31T00:35:20;22.58;;;4.55;;
50519;SDS011;36468;44.098;3.078;2022-10-31T00:37:46;27.88;;;5.85;;
50519;SDS011;36468;44.098;3.078;2022-10-31T00:40:13;23.83;;;4.90;;
50519;SDS011;36468;44.098;3.078;2022-10-31T00:42:39;24.95;;;5.13;;
50519;SDS011;36468;44.098;3.078;2022-10-31T00:45:07;28.40;;;5.05;;
50519;SDS011;36468;44.098;3.078;2022-10-31T00:47:33;27.92;;;5.20;;
50519;SDS011;36468;44.098;3.078;2022-10-31T00:49:59;23.77;;;5.10;;
50519;SDS011;36468;44.098;3.078;2022-10-31T00:52:25;26.55;;;5.72;;
50519;SDS011;36468;44.098;3.078;2022-10-31T00:54:51;26.42;;;4.93;;
50519;SDS011;36468;44.098;3.078;2022-10-31T00:57:17;26.05;;;5.45;;
50519;SDS011;36468;44.098;3.078;2022-10-31T00:59:43;21.92;;;5.03;;
50519;SDS011;36468;44.098;3.078;2022-10-31T01:02:09;25.67;;;5.35;;
50519;SDS011;36468;44.098;3.078;2022-10-31T01:04:35;29.25;;;5.97;;
50519;SDS011;36468;44.098;3.078;2022-10-31T01:07:01;25.45;;;5.78;;
50519;SDS011;36468;44.098;3.078;2022-10-31T01:09:27;22.00;;;5.50;;
50519;SDS011;36468;44.098;3.078;2022-10-31T01:11:53;21.90;;;5.30;;
50519;SDS011;36468;44.098;3.078;2022-10-31T01:14:19;22.85;;;6.10;;
50519;SDS011;36468;44.098;3.078;2022-10-31T01:16:45;24.30;;;5.10;;
50519;SDS011;36468;44.098;3.078;2022-10-31T01:19:11;29.15;;;5.28;;
50519;SDS011;36468;44.098;3.078;2022-10-31T01:21:37;26.27;;;5.50;;
50519;SDS011;36468;44.098;3.078;2022-10-31T01:24:03;28.63;;;4.72;;
50519;SDS011;36468;44.098;3.078;2022-10-31T01:26:30;21.73;;;5.72;;
50519;SDS011;36468;44.098;3.078;2022-10-31T01:29:01;27.85;;;5.70;;
50519;SDS011;36468;44.098;3.078;2022-10-31T01:31:29;26.30;;;5.60;;
50519;SDS011;36468;44.098;3.078;2022-10-31T01:33:55;24.77;;;5.47;;
50519;SDS011;36468;44.098;3.078;2022-10-31T01:36:23;34.53;;;5.55;;
50519;SDS011;36468;44.098;3.078;2022-10-31T01:38:49;13.70;;;4.63;;
50519;SDS011;36468;44.098;3.078;2022-10-31T01:41:17;26.23;;;5.35;;
50519;SDS011;36468;44.098;3.078;2022-10-31T01:46:09;25.05;;;5.47;;
50519;SDS011;36468;44.098;3.078;2022-10-31T01:48:36;24.02;;;5.22;;
50519;SDS011;36468;44.098;3.078;2022-10-31T01:51:02;22.13;;;5.40;;
50519;SDS011;36468;44.098;3.078;2022-10-31T01:53:30;25.17;;;4.90;;
50519;SDS011;36468;44.098;3.078;2022-10-31T01:55:56;23.60;;;5.07;;
50519;SDS011;36468;44.098;3.078;2022-10-31T01:58:23;19.13;;;4.93;;
50519;SDS011;36468;44.098;3.078;2022-10-31T02:00:51;19.42;;;5.30;;
50519;SDS011;36468;44.098;3.078;2022-10-31T02:03:19;19.17;;;5.13;;
50519;SDS011;36468;44.098;3.078;2022-10-31T02:05:46;28.35;;;6.45;;
50519;SDS011;36468;44.098;3.078;2022-10-31T02:08:20;24.77;;;6.20;;
50519;SDS011;36468;44.098;3.078;2022-10-31T02:10:49;32.40;;;5.95;;
50519;SDS011;36468;44.098;3.078;2022-10-31T02:13:15;23.98;;;5.25;;
50519;SDS011;36468;44.098;3.078;2022-10-31T02:15:41;23.92;;;5.03;;
50519;SDS011;36468;44.098;3.078;2022-10-31T02:18:08;27.63;;;5.60;;
50519;SDS011;36468;44.098;3.078;2022-10-31T02:20:42;33.50;;;6.05;;
50519;SDS011;36468;44.098;3.078;2022-10-31T02:33:24;19.70;;;4.95;;
50519;SDS011;36468;44.098;3.078;2022-10-31T02:38:45;23.27;;;5.68;;
50519;SDS011;36468;44.098;3.078;2022-10-31T02:48:51;32.42;;;6.07;;
50519;SDS011;36468;44.098;3.078;2022-10-31T02:51:18;21.27;;;6.03;;
50519;SDS011;36468;44.098;3.078;2022-10-31T02:53:45;21.13;;;6.03;;
50519;SDS011;36468;44.098;3.078;2022-10-31T02:56:13;24.58;;;6.03;;
50519;SDS011;36468;44.098;3.078;2022-10-31T02:58:40;26.92;;;5.50;;
50519;SDS011;36468;44.098;3.078;2022-10-31T03:01:17;26.88;;;6.15;;
50519;SDS011;36468;44.098;3.078;2022-10-31T03:08:53;27.55;;;5.90;;
50519;SDS011;36468;44.098;3.078;2022-10-31T03:11:21;24.40;;;5.75;;
50519;SDS011;36468;44.098;3.078;2022-10-31T03:13:53;30.02;;;6.05;;
50519;SDS011;36468;44.098;3.078;2022-10-31T03:16:26;30.05;;;5.13;;
50519;SDS011;36468;44.098;3.078;2022-10-31T03:24:25;30.77;;;5.55;;
50519;SDS011;36468;44.098;3.078;2022-10-31T03:26:53;25.02;;;5.38;;
50519;SDS011;36468;44.098;3.078;2022-10-31T03:29:21;20.67;;;4.90;;
50519;SDS011;36468;44.098;3.078;2022-10-31T03:31:51;20.55;;;5.28;;
50519;SDS011;36468;44.098;3.078;2022-10-31T03:34:19;28.83;;;5.65;;
50519;SDS011;36468;44.098;3.078;2022-10-31T03:36:46;24.33;;;5.82;;
50519;SDS011;36468;44.098;3.078;2022-10-31T03:39:15;23.05;;;5.53;;
50519;SDS011;36468;44.098;3.078;2022-10-31T03:41:42;17.08;;;5.35;;
50519;SDS011;36468;44.098;3.078;2022-10-31T03:44:14;20.98;;;5.20;;
50519;SDS011;36468;44.098;3.078;2022-10-31T03:46:40;22.55;;;5.85;;
50519;SDS011;36468;44.098;3.078;2022-10-31T03:49:07;19.80;;;5.72;;
50519;SDS011;36468;44.098;3.078;2022-10-31T03:54:04;21.30;;;4.95;;
50519;SDS011;36468;44.098;3.078;2022-10-31T03:59:11;24.85;;;5.53;;
50519;SDS011;36468;44.098;3.078;2022-10-31T04:01:41;29.17;;;5.70;;
50519;SDS011;36468;44.098;3.078;2022-10-31T04:04:08;28.52;;;5.97;;
50519;SDS011;36468;44.098;3.078;2022-10-31T04:06:35;22.63;;;5.55;;
50519;SDS011;36468;44.098;3.078;2022-10-31T04:09:03;26.75;;;5.50;;
50519;SDS011;36468;44.098;3.078;2022-10-31T04:11:31;28.60;;;5.28;;
50519;SDS011;36468;44.098;3.078;2022-10-31T04:13:59;20.20;;;6.00;;
50519;SDS011;36468;44.098;3.078;2022-10-31T04:16:26;27.00;;;5.82;;
50519;SDS011;36468;44.098;3.078;2022-10-31T04:18:52;21.63;;;5.20;;
50519;SDS011;36468;44.098;3.078;2022-10-31T04:21:18;23.40;;;5.63;;
50519;SDS011;36468;44.098;3.078;2022-10-31T04:23:44;28.15;;;6.28;;
50519;SDS011;36468;44.098;3.078;2022-10-31T04:26:11;27.08;;;5.97;;
50519;SDS011;36468;44.098;3.078;2022-10-31T04:28:37;26.48;;;5.53;;
50519;SDS011;36468;44.098;3.078;2022-10-31T04:31:03;22.50;;;5.47;;
50519;SDS011;36468;44.098;3.078;2022-10-31T04:33:29;22.83;;;6.05;;
50519;SDS011;36468;44.098;3.078;2022-10-31T04:35:55;22.92;;;5.07;;
50519;SDS011;36468;44.098;3.078;2022-10-31T04:38:21;23.38;;;6.20;;
50519;SDS011;36468;44.098;3.078;2022-10-31T04:40:47;22.30;;;5.00;;
50519;SDS011;36468;44.098;3.078;2022-10-31T04:43:13;26.73;;;5.40;;
50519;SDS011;36468;44.098;3.078;2022-10-31T04:45:39;25.75;;;5.93;;
50519;SDS011;36468;44.098;3.078;2022-10-31T04:48:05;19.77;;;5.75;;
50519;SDS011;36468;44.098;3.078;2022-10-31T04:50:31;23.35;;;5.72;;
50519;SDS011;36468;44.098;3.078;2022-10-31T04:52:57;28.70;;;5.70;;
50519;SDS011;36468;44.098;3.078;2022-10-31T04:55:24;22.60;;;5.20;;
50519;SDS011;36468;44.098;3.078;2022-10-31T04:57:50;25.20;;;5.03;;
50519;SDS011;36468;44.098;3.078;2022-10-31T05:00:17;23.45;;;5.15;;
50519;SDS011;36468;44.098;3.078;2022-10-31T05:02:44;21.90;;;5.78;;
50519;SDS011;36468;44.098;3.078;2022-10-31T05:05:11;17.45;;;5.05;;
50519;SDS011;36468;44.098;3.078;2022-10-31T05:07:38;26.67;;;5.75;;
50519;SDS011;36468;44.098;3.078;2022-10-31T05:10:05;25.77;;;5.30;;
50519;SDS011;36468;44.098;3.078;2022-10-31T05:12:31;34.75;;;6.18;;
50519;SDS011;36468;44.098;3.078;2022-10-31T05:14:57;26.38;;;5.60;;
50519;SDS011;36468;44.098;3.078;2022-10-31T05:17:23;23.50;;;5.15;;
50519;SDS011;36468;44.098;3.078;2022-10-31T05:19:49;19.42;;;5.43;;
50519;SDS011;36468;44.098;3.078;2022-10-31T05:22:15;23.48;;;6.20;;
50519;SDS011;36468;44.098;3.078;2022-10-31T05:24:41;30.73;;;5.28;;
50519;SDS011;36468;44.098;3.078;2022-10-31T05:27:07;24.55;;;5.25;;
50519;SDS011;36468;44.098;3.078;2022-10-31T05:29:33;28.45;;;5.40;;
50519;SDS011;36468;44.098;3.078;2022-10-31T05:31:59;21.15;;;5.90;;
50519;SDS011;36468;44.098;3.078;2022-10-31T05:34:25;23.70;;;5.65;;
50519;SDS011;36468;44.098;3.078;2022-10-31T05:36:51;21.50;;;5.75;;
50519;SDS011;36468;44.098;3.078;2022-10-31T05:39:17;27.00;;;5.47;;
50519;SDS011;36468;44.098;3.078;2022-10-31T05:41:43;24.95;;;6.20;;
50519;SDS011;36468;44.098;3.078;2022-10-31T05:44:09;26.10;;;5.65;;
50519;SDS011;36468;44.098;3.078;2022-10-31T05:46:35;22.80;;;6.15;;
50519;SDS011;36468;44.098;3.078;2022-10-31T05:49:01;25.52;;;5.68;;
50519;SDS011;36468;44.098;3.078;2022-10-31T05:51:27;27.52;;;5.70;;
50519;SDS011;36468;44.098;3.078;2022-10-31T05:53:53;27.42;;;5.72;;
50519;SDS011;36468;44.098;3.078;2022-10-31T05:56:19;33.40;;;5.78;;
50519;SDS011;36468;44.098;3.078;2022-10-31T05:58:45;24.65;;;5.38;;
50519;SDS011;36468;44.098;3.078;2022-10-31T06:01:11;19.52;;;5.35;;
50519;SDS011;36468;44.098;3.078;2022-10-31T06:03:37;25.17;;;5.40;;
50519;SDS011;36468;44.098;3.078;2022-10-31T06:06:03;20.05;;;5.60;;
50519;SDS011;36468;44.098;3.078;2022-10-31T06:08:29;23.17;;;6.30;;
50519;SDS011;36468;44.098;3.078;2022-10-31T06:10:55;20.65;;;5.32;;
50519;SDS011;36468;44.098;3.078;2022-10-31T06:13:22;21.83;;;5.47;;
50519;SDS011;36468;44.098;3.078;2022-10-31T06:15:48;32.72;;;5.68;;
50519;SDS011;36468;44.098;3.078;2022-10-31T06:18:14;21.60;;;5.22;;
50519;SDS011;36468;44.098;3.078;2022-10-31T06:20:40;22.52;;;6.65;;
50519;SDS011;36468;44.098;3.078;2022-10-31T06:23:06;26.48;;;5.80;;
50519;SDS011;36468;44.098;3.078;2022-10-31T06:25:32;23.27;;;6.20;;
50519;SDS011;36468;44.098;3.078;2022-10-31T06:27:58;20.52;;;6.25;;
50519;SDS011;36468;44.098;3.078;2022-10-31T06:30:24;21.60;;;5.57;;
50519;SDS011;36468;44.098;3.078;2022-10-31T06:32:50;24.48;;;6.00;;
50519;SDS011;36468;44.098;3.078;2022-10-31T06:35:17;25.17;;;6.35;;
50519;SDS011;36468;44.098;3.078;2022-10-31T06:37:50;23.38;;;5.82;;
50519;SDS011;36468;44.098;3.078;2022-10-31T06:40:16;31.17;;;5.68;;
50519;SDS011;36468;44.098;3.078;2022-10-31T06:42:42;26.42;;;5.85;;
50519;SDS011;36468;44.098;3.078;2022-10-31T06:45:08;27.02;;;6.00;;
50519;SDS011;36468;44.098;3.078;2022-10-31T06:47:34;29.38;;;5.57;;
50519;SDS011;36468;44.098;3.078;2022-10-31T06:50:01;23.73;;;5.70;;
50519;SDS011;36468;44.098;3.078;2022-10-31T06:52:27;25.30;;;5.50;;
50519;SDS011;36468;44.098;3.078;2022-10-31T06:54:53;26.40;;;6.32;;
50519;SDS011;36468;44.098;3.078;2022-10-31T06:57:19;21.67;;;5.80;;
50519;SDS011;36468;44.098;3.078;2022-10-31T06:59:45;22.75;;;5.55;;
50519;SDS011;36468;44.098;3.078;2022-10-31T07:02:11;28.55;;;5.78;;
50519;SDS011;36468;44.098;3.078;2022-10-31T07:04:37;23.75;;;5.90;;
50519;SDS011;36468;44.098;3.078;2022-10-31T07:07:03;25.70;;;6.00;;
50519;SDS011;36468;44.098;3.078;2022-10-31T07:09:29;29.30;;;5.97;;
50519;SDS011;36468;44.098;3.078;2022-10-31T07:11:55;20.52;;;5.63;;
50519;SDS011;36468;44.098;3.078;2022-10-31T07:14:21;17.65;;;5.13;;
50519;SDS011;36468;44.098;3.078;2022-10-31T07:16:50;23.98;;;5.10;;
50519;SDS011;36468;44.098;3.078;2022-10-31T07:19:16;30.80;;;5.70;;
50519;SDS011;36468;44.098;3.078;2022-10-31T07:21:42;25.50;;;5.22;;
50519;SDS011;36468;44.098;3.078;2022-10-31T07:24:08;24.30;;;5.38;;
50519;SDS011;36468;44.098;3.078;2022-10-31T07:26:34;28.52;;;5.45;;
50519;SDS011;36468;44.098;3.078;2022-10-31T07:29:00;18.63;;;4.68;;
50519;SDS011;36468;44.098;3.078;2022-10-31T07:31:26;22.73;;;5.22;;
50519;SDS011;36468;44.098;3.078;2022-10-31T07:33:52;24.73;;;4.50;;
50519;SDS011;36468;44.098;3.078;2022-10-31T07:36:18;32.67;;;4.93;;
50519;SDS011;36468;44.098;3.078;2022-10-31T07:38:44;24.05;;;4.45;;
50519;SDS011;36468;44.098;3.078;2022-10-31T07:41:10;21.98;;;4.72;;
50519;SDS011;36468;44.098;3.078;2022-10-31T07:43:36;23.85;;;5.38;;
50519;SDS011;36468;44.098;3.078;2022-10-31T07:46:03;23.75;;;5.15;;
50519;SDS011;36468;44.098;3.078;2022-10-31T07:48:29;25.73;;;5.95;;
50519;SDS011;36468;44.098;3.078;2022-10-31T07:50:55;23.90;;;4.57;;
50519;SDS011;36468;44.098;3.078;2022-10-31T07:53:21;20.90;;;4.63;;
50519;SDS011;36468;44.098;3.078;2022-10-31T07:55:47;25.25;;;4.45;;
50519;SDS011;36468;44.098;3.078;2022-10-31T07:58:14;27.02;;;4.82;;
50519;SDS011;36468;44.098;3.078;2022-10-31T08:00:41;18.90;;;3.80;;
50519;SDS011;36468;44.098;3.078;2022-10-31T08:03:11;25.67;;;4.90;;
50519;SDS011;36468;44.098;3.078;2022-10-31T08:05:37;19.88;;;4.32;;
50519;SDS011;36468;44.098;3.078;2022-10-31T08:08:06;25.65;;;5.05;;
50519;SDS011;36468;44.098;3.078;2022-10-31T08:10:32;19.45;;;4.43;;
50519;SDS011;36468;44.098;3.078;2022-10-31T08:15:28;21.67;;;4.72;;
50519;SDS011;36468;44.098;3.078;2022-10-31T08:17:54;22.70;;;4.25;;
50519;SDS011;36468;44.098;3.078;2022-10-31T08:20:20;27.80;;;4.32;;
50519;SDS011;36468;44.098;3.078;2022-10-31T08:22:53;25.13;;;4.88;;
50519;SDS011;36468;44.098;3.078;2022-10-31T08:27:48;20.83;;;4.30;;
50519;SDS011;36468;44.098;3.078;2022-10-31T08:30:15;20.42;;;4.15;;
50519;SDS011;36468;44.098;3.078;2022-10-31T08:32:41;24.10;;;4.55;;
50519;SDS011;36468;44.098;3.078;2022-10-31T08:35:07;21.98;;;4.28;;
50519;SDS011;36468;44.098;3.078;2022-10-31T08:37:33;25.05;;;4.65;;
50519;SDS011;36468;44.098;3.078;2022-10-31T08:39:59;27.20;;;5.13;;
50519;SDS011;36468;44.098;3.078;2022-10-31T08:42:25;25.67;;;4.78;;
50519;SDS011;36468;44.098;3.078;2022-10-31T08:44:51;28.30;;;4.70;;
50519;SDS011;36468;44.098;3.078;2022-10-31T08:47:17;21.83;;;5.07;;
50519;SDS011;36468;44.098;3.078;2022-10-31T08:49:43;20.90;;;4.38;;
50519;SDS011;36468;44.098;3.078;2022-10-31T08:52:09;19.92;;;4.20;;
50519;SDS011;36468;44.098;3.078;2022-10-31T08:54:35;22.60;;;4.70;;
50519;SDS011;36468;44.098;3.078;2022-10-31T08:57:01;23.55;;;4.18;;
50519;SDS011;36468;44.098;3.078;2022-10-31T08:59:27;30.10;;;4.60;;
50519;SDS011;36468;44.098;3.078;2022-10-31T09:01:53;22.80;;;4.10;;
50519;SDS011;36468;44.098;3.078;2022-10-31T09:04:19;28.33;;;4.95;;
50519;SDS011;36468;44.098;3.078;2022-10-31T09:06:45;31.38;;;5.05;;
50519;SDS011;36468;44.098;3.078;2022-10-31T09:09:11;22.20;;;4.20;;
50519;SDS011;36468;44.098;3.078;2022-10-31T09:11:37;23.58;;;4.15;;
50519;SDS011;36468;44.098;3.078;2022-10-31T09:14:03;20.50;;;4.45;;
50519;SDS011;36468;44.098;3.078;2022-10-31T09:16:29;28.90;;;4.10;;
50519;SDS011;36468;44.098;3.078;2022-10-31T09:18:55;26.40;;;4.35;;
50519;SDS011;36468;44.098;3.078;2022-10-31T09:21:21;25.17;;;4.70;;
50519;SDS011;36468;44.098;3.078;2022-10-31T09:23:48;28.13;;;4.93;;
50519;SDS011;36468;44.098;3.078;2022-10-31T09:26:14;21.63;;;4.28;;
50519;SDS011;36468;44.098;3.078;2022-10-31T09:28:40;25.98;;;4.63;;
50519;SDS011;36468;44.098;3.078;2022-10-31T09:31:06;26.55;;;4.90;;
50519;SDS011;36468;44.098;3.078;2022-10-31T09:33:32;31.55;;;5.05;;
50519;SDS011;36468;44.098;3.078;2022-10-31T09:35:58;27.52;;;4.70;;
50519;SDS011;36468;44.098;3.078;2022-10-31T09:38:24;23.67;;;4.10;;
50519;SDS011;36468;44.098;3.078;2022-10-31T09:46:04;27.80;;;4.18;;
50519;SDS011;36468;44.098;3.078;2022-10-31T09:53:34;24.77;;;4.45;;
50519;SDS011;36468;44.098;3.078;2022-10-31T09:56:00;21.67;;;4.53;;
50519;SDS011;36468;44.098;3.078;2022-10-31T09:58:28;29.75;;;4.45;;
50519;SDS011;36468;44.098;3.078;2022-10-31T10:00:56;25.63;;;4.15;;
50519;SDS011;36468;44.098;3.078;2022-10-31T10:03:27;19.15;;;3.90;;
50519;SDS011;36468;44.098;3.078;2022-10-31T10:08:20;32.50;;;4.85;;
50519;SDS011;36468;44.098;3.078;2022-10-31T10:11:02;20.65;;;4.30;;
50519;SDS011;36468;44.098;3.078;2022-10-31T10:21:29;22.63;;;3.95;;
50519;SDS011;36468;44.098;3.078;2022-10-31T10:24:08;25.35;;;4.50;;
50519;SDS011;36468;44.098;3.078;2022-10-31T10:26:38;24.38;;;4.78;;
50519;SDS011;36468;44.098;3.078;2022-10-31T10:31:41;27.02;;;4.13;;
50519;SDS011;36468;44.098;3.078;2022-10-31T10:36:41;25.40;;;4.72;;
50519;SDS011;36468;44.098;3.078;2022-10-31T10:39:11;31.17;;;4.78;;
50519;SDS011;36468;44.098;3.078;2022-10-31T10:41:40;20.67;;;4.28;;
50519;SDS011;36468;44.098;3.078;2022-10-31T10:44:08;16.30;;;3.90;;
50519;SDS011;36468;44.098;3.078;2022-10-31T10:46:43;21.75;;;4.20;;
50519;SDS011;36468;44.098;3.078;2022-10-31T10:55:03;24.27;;;4.32;;
50519;SDS011;36468;44.098;3.078;2022-10-31T10:57:21;23.48;;;4.72;;
50519;SDS011;36468;44.098;3.078;2022-10-31T10:59:47;24.10;;;4.10;;
50519;SDS011;36468;44.098;3.078;2022-10-31T11:02:22;25.60;;;4.85;;
50519;SDS011;36468;44.098;3.078;2022-10-31T11:04:52;27.65;;;4.78;;
50519;SDS011;36468;44.098;3.078;2022-10-31T11:07:19;23.30;;;4.97;;
50519;SDS011;36468;44.098;3.078;2022-10-31T11:09:45;32.35;;;4.60;;
50519;SDS011;36468;44.098;3.078;2022-10-31T11:12:29;25.60;;;4.30;;
50519;SDS011;36468;44.098;3.078;2022-10-31T11:14:56;23.63;;;3.63;;
50519;SDS011;36468;44.098;3.078;2022-10-31T11:17:26;26.48;;;4.35;;
50519;SDS011;36468;44.098;3.078;2022-10-31T11:20:03;26.25;;;4.38;;
50519;SDS011;36468;44.098;3.078;2022-10-31T11:22:30;21.58;;;4.72;;
50519;SDS011;36468;44.098;3.078;2022-10-31T11:24:56;23.17;;;4.05;;
50519;SDS011;36468;44.098;3.078;2022-10-31T11:27:23;28.38;;;4.45;;
50519;SDS011;36468;44.098;3.078;2022-10-31T11:29:50;28.95;;;4.35;;
50519;SDS011;36468;44.098;3.078;2022-10-31T11:32:26;25.88;;;4.15;;
50519;SDS011;36468;44.098;3.078;2022-10-31T11:34:55;21.75;;;4.00;;
50519;SDS011;36468;44.098;3.078;2022-10-31T11:37:23;23.40;;;4.25;;
50519;SDS011;36468;44.098;3.078;2022-10-31T11:39:54;25.00;;;4.93;;
50519;SDS011;36468;44.098;3.078;2022-10-31T11:42:27;24.67;;;3.90;;
50519;SDS011;36468;44.098;3.078;2022-10-31T11:44:54;24.23;;;4.35;;
50519;SDS011;36468;44.098;3.078;2022-10-31T11:47:23;20.70;;;4.15;;
50519;SDS011;36468;44.098;3.078;2022-10-31T11:49:51;23.02;;;4.22;;
50519;SDS011;36468;44.098;3.078;2022-10-31T11:52:18;28.75;;;4.20;;
50519;SDS011;36468;44.098;3.078;2022-10-31T12:00:17;21.20;;;4.20;;
50519;SDS011;36468;44.098;3.078;2022-10-31T12:02:46;18.90;;;4.32;;
50519;SDS011;36468;44.098;3.078;2022-10-31T12:05:19;21.48;;;4.15;;
50519;SDS011;36468;44.098;3.078;2022-10-31T12:07:47;25.25;;;3.67;;
50519;SDS011;36468;44.098;3.078;2022-10-31T12:10:14;22.45;;;4.07;;
50519;SDS011;36468;44.098;3.078;2022-10-31T12:12:47;23.38;;;4.72;;
50519;SDS011;36468;44.098;3.078;2022-10-31T12:17:45;30.15;;;5.10;;
50519;SDS011;36468;44.098;3.078;2022-10-31T12:20:33;31.70;;;4.57;;
50519;SDS011;36468;44.098;3.078;2022-10-31T12:23:12;22.13;;;4.65;;
50519;SDS011;36468;44.098;3.078;2022-10-31T12:45:59;24.73;;;4.32;;
50519;SDS011;36468;44.098;3.078;2022-10-31T12:59:12;26.92;;;4.53;;
50519;SDS011;36468;44.098;3.078;2022-10-31T13:01:42;30.55;;;4.38;;
50519;SDS011;36468;44.098;3.078;2022-10-31T13:06:46;23.00;;;4.43;;
50519;SDS011;36468;44.098;3.078;2022-10-31T13:09:15;19.63;;;4.03;;
50519;SDS011;36468;44.098;3.078;2022-10-31T13:11:46;21.58;;;4.88;;
50519;SDS011;36468;44.098;3.078;2022-10-31T13:16:55;31.13;;;4.82;;
50519;SDS011;36468;44.098;3.078;2022-10-31T13:19:23;18.77;;;4.75;;
50519;SDS011;36468;44.098;3.078;2022-10-31T13:24:21;26.77;;;4.40;;
50519;SDS011;36468;44.098;3.078;2022-10-31T13:26:49;26.83;;;5.10;;
50519;SDS011;36468;44.098;3.078;2022-10-31T13:29:20;25.33;;;4.70;;
50519;SDS011;36468;44.098;3.078;2022-10-31T13:31:48;30.80;;;4.28;;
50519;SDS011;36468;44.098;3.078;2022-10-31T13:39:39;17.10;;;4.22;;
50519;SDS011;36468;44.098;3.078;2022-10-31T13:42:14;31.58;;;5.13;;
50519;SDS011;36468;44.098;3.078;2022-10-31T13:44:44;18.90;;;4.32;;
50519;SDS011;36468;44.098;3.078;2022-10-31T13:47:26;27.15;;;5.10;;
50519;SDS011;36468;44.098;3.078;2022-10-31T13:50:05;23.67;;;4.40;;
50519;SDS011;36468;44.098;3.078;2022-10-31T13:52:32;27.00;;;4.60;;
50519;SDS011;36468;44.098;3.078;2022-10-31T13:54:58;22.45;;;4.57;;
50519;SDS011;36468;44.098;3.078;2022-10-31T13:57:43;20.52;;;4.40;;
50519;SDS011;36468;44.098;3.078;2022-10-31T14:02:35;21.40;;;4.35;;
50519;SDS011;36468;44.098;3.078;2022-10-31T14:07:43;22.70;;;4.47;;
50519;SDS011;36468;44.098;3.078;2022-10-31T14:10:20;26.13;;;4.35;;
50519;SDS011;36468;44.098;3.078;2022-10-31T14:12:46;27.00;;;4.18;;
50519;SDS011;36468;44.098;3.078;2022-10-31T14:15:26;24.75;;;4.55;;
50519;SDS011;36468;44.098;3.078;2022-10-31T14:18:03;24.08;;;4.78;;
50519;SDS011;36468;44.098;3.078;2022-10-31T14:25:47;26.98;;;5.25;;
50519;SDS011;36468;44.098;3.078;2022-10-31T14:28:20;24.92;;;4.82;;
50519;SDS011;36468;44.098;3.078;2022-10-31T14:30:56;23.92;;;4.72;;
50519;SDS011;36468;44.098;3.078;2022-10-31T14:33:24;22.35;;;5.00;;
50519;SDS011;36468;44.098;3.078;2022-10-31T14:43:50;25.05;;;4.85;;
50519;SDS011;36468;44.098;3.078;2022-10-31T14:51:19;28.90;;;5.30;;
50519;SDS011;36468;44.098;3.078;2022-10-31T14:53:52;34.10;;;5.75;;
50519;SDS011;36468;44.098;3.078;2022-10-31T14:56:29;26.45;;;5.72;;
50519;SDS011;36468;44.098;3.078;2022-10-31T14:58:57;33.60;;;5.88;;
50519;SDS011;36468;44.098;3.078;2022-10-31T15:01:25;24.02;;;4.97;;
50519;SDS011;36468;44.098;3.078;2022-10-31T15:03:53;28.20;;;5.68;;
50519;SDS011;36468;44.098;3.078;2022-10-31T15:06:20;34.95;;;5.47;;
50519;SDS011;36468;44.098;3.078;2022-10-31T15:08:48;21.05;;;5.47;;
50519;SDS011;36468;44.098;3.078;2022-10-31T15:13:41;26.65;;;5.43;;
50519;SDS011;36468;44.098;3.078;2022-10-31T15:16:08;25.55;;;5.25;;
50519;SDS011;36468;44.098;3.078;2022-10-31T15:18:36;33.80;;;5.82;;
50519;SDS011;36468;44.098;3.078;2022-10-31T15:21:05;25.60;;;5.63;;
50519;SDS011;36468;44.098;3.078;2022-10-31T15:23:32;24.85;;;5.30;;
50519;SDS011;36468;44.098;3.078;2022-10-31T15:26:02;28.35;;;6.15;;
50519;SDS011;36468;44.098;3.078;2022-10-31T15:28:29;31.65;;;5.80;;
50519;SDS011;36468;44.098;3.078;2022-10-31T15:30:57;30.75;;;6.03;;
50519;SDS011;36468;44.098;3.078;2022-10-31T15:33:27;28.63;;;5.93;;
50519;SDS011;36468;44.098;3.078;2022-10-31T15:35:54;30.67;;;5.55;;
50519;SDS011;36468;44.098;3.078;2022-10-31T15:38:21;31.20;;;5.97;;
50519;SDS011;36468;44.098;3.078;2022-10-31T15:40:51;26.10;;;5.75;;
50519;SDS011;36468;44.098;3.078;2022-10-31T15:43:18;33.58;;;5.40;;
50519;SDS011;36468;44.098;3.078;2022-10-31T15:45:45;30.02;;;6.43;;
50519;SDS011;36468;44.098;3.078;2022-10-31T15:48:17;29.17;;;6.13;;
50519;SDS011;36468;44.098;3.078;2022-10-31T15:50:53;30.00;;;5.80;;
50519;SDS011;36468;44.098;3.078;2022-10-31T15:53:26;35.42;;;6.68;;
50519;SDS011;36468;44.098;3.078;2022-10-31T15:56:02;25.35;;;5.72;;
50519;SDS011;36468;44.098;3.078;2022-10-31T15:58:30;27.42;;;5.68;;
50519;SDS011;36468;44.098;3.078;2022-10-31T16:01:01;25.48;;;6.55;;
50519;SDS011;36468;44.098;3.078;2022-10-31T16:03:29;25.35;;;5.43;;
50519;SDS011;36468;44.098;3.078;2022-10-31T16:05:56;25.30;;;5.50;;
50519;SDS011;36468;44.098;3.078;2022-10-31T16:08:24;23.90;;;5.78;;
50519;SDS011;36468;44.098;3.078;2022-10-31T16:10:50;28.85;;;6.47;;
50519;SDS011;36468;44.098;3.078;2022-10-31T16:13:17;34.30;;;6.13;;
50519;SDS011;36468;44.098;3.078;2022-10-31T16:15:49;32.78;;;6.53;;
50519;SDS011;36468;44.098;3.078;2022-10-31T16:18:16;29.15;;;6.40;;
50519;SDS011;36468;44.098;3.078;2022-10-31T16:20:47;32.95;;;5.88;;
50519;SDS011;36468;44.098;3.078;2022-10-31T16:23:15;26.15;;;6.53;;
50519;SDS011;36468;44.098;3.078;2022-10-31T16:25:42;37.65;;;6.05;;
50519;SDS011;36468;44.098;3.078;2022-10-31T16:28:16;29.75;;;6.47;;
50519;SDS011;36468;44.098;3.078;2022-10-31T16:30:43;28.85;;;6.28;;
50519;SDS011;36468;44.098;3.078;2022-10-31T16:33:23;27.45;;;6.28;;
50519;SDS011;36468;44.098;3.078;2022-10-31T16:35:50;29.60;;;6.95;;
50519;SDS011;36468;44.098;3.078;2022-10-31T16:38:16;31.05;;;6.40;;
50519;SDS011;36468;44.098;3.078;2022-10-31T16:40:42;29.17;;;7.15;;
50519;SDS011;36468;44.098;3.078;2022-10-31T16:43:10;23.65;;;5.95;;
50519;SDS011;36468;44.098;3.078;2022-10-31T16:45:37;26.70;;;6.18;;
50519;SDS011;36468;44.098;3.078;2022-10-31T16:48:11;26.33;;;6.28;;
50519;SDS011;36468;44.098;3.078;2022-10-31T16:50:40;25.05;;;6.28;;
50519;SDS011;36468;44.098;3.078;2022-10-31T16:53:06;32.05;;;6.80;;
50519;SDS011;36468;44.098;3.078;2022-10-31T16:55:32;22.23;;;5.70;;
50519;SDS011;36468;44.098;3.078;2022-10-31T16:58:00;26.60;;;5.88;;
50519;SDS011;36468;44.098;3.078;2022-10-31T17:00:27;24.92;;;6.20;;
50519;SDS011;36468;44.098;3.078;2022-10-31T17:02:54;29.77;;;5.75;;
50519;SDS011;36468;44.098;3.078;2022-10-31T17:05:24;22.42;;;5.80;;
50519;SDS011;36468;44.098;3.078;2022-10-31T17:07:57;30.85;;;6.05;;
50519;SDS011;36468;44.098;3.078;2022-10-31T17:10:24;22.42;;;5.47;;